createdAt,value
2022-08-11T00:00:13.669Z,26.06
2022-08-11T00:01:12.351Z,26.06
2022-08-11T00:02:15.070Z,26.06
2022-08-11T00:03:12.946Z,26.06
2022-08-11T00:04:13.172Z,26.06
2022-08-11T00:05:13.415Z,26.06
2022-08-11T00:06:13.653Z,26.06
2022-08-11T00:07:13.893Z,26.06
2022-08-11T00:08:14.144Z,26.05
2022-08-11T00:09:14.391Z,26.06
2022-08-11T00:10:14.655Z,26.05
2022-08-11T00:11:14.886Z,26.06
2022-08-11T00:12:15.214Z,26.05
2022-08-11T00:13:16.875Z,26.05
2022-08-11T00:14:15.693Z,26.02
2022-08-11T00:15:16.735Z,26.05
2022-08-11T00:16:16.156Z,26.02
2022-08-11T00:17:16.408Z,26.02
2022-08-11T00:18:16.647Z,26.02
2022-08-11T00:19:16.877Z,26.02
2022-08-11T00:20:18.207Z,26.05
2022-08-11T00:21:17.378Z,26.02
2022-08-11T00:22:17.628Z,26.02
2022-08-11T00:23:18.402Z,26.02
2022-08-11T00:24:18.160Z,26.01
2022-08-11T00:25:18.412Z,26.01
2022-08-11T00:26:18.649Z,26.02
2022-08-11T00:27:18.887Z,26.01
2022-08-11T00:28:19.129Z,25.99
2022-08-11T00:29:19.369Z,26.01
2022-08-11T00:30:21.130Z,26.01
2022-08-11T00:31:19.941Z,26.01
2022-08-11T00:32:20.223Z,26.01
2022-08-11T00:33:20.461Z,26.01
2022-08-11T00:34:21.690Z,26.01
2022-08-11T00:35:54.371Z,26.01
2022-08-11T00:36:25.553Z,26.01
2022-08-11T00:37:21.524Z,25.99
2022-08-11T00:38:21.751Z,25.98
2022-08-11T00:39:22.019Z,25.98
2022-08-11T00:40:23.224Z,25.98
2022-08-11T00:41:22.524Z,25.99
2022-08-11T00:42:22.792Z,25.99
2022-08-11T00:43:23.032Z,25.98
2022-08-11T00:44:23.275Z,25.98
2022-08-11T00:45:24.325Z,25.98
2022-08-11T00:46:23.750Z,25.98
2022-08-11T00:47:23.985Z,25.97
2022-08-11T00:48:24.225Z,25.99
2022-08-11T00:49:24.456Z,25.98
2022-08-11T00:50:25.516Z,25.98
2022-08-11T00:51:24.935Z,25.97
2022-08-11T00:52:25.179Z,25.97
2022-08-11T00:53:25.417Z,25.97
2022-08-11T00:54:25.648Z,25.97
2022-08-11T00:55:25.901Z,25.97
2022-08-11T00:56:26.139Z,25.95
2022-08-11T00:57:36.263Z,25.95
2022-08-11T00:58:27.611Z,25.95
2022-08-11T00:59:34.943Z,25.97
2022-08-11T01:00:28.950Z,25.95
2022-08-11T01:01:27.457Z,25.95
2022-08-11T01:02:30.748Z,25.95
2022-08-11T01:03:28.031Z,25.95
2022-08-11T01:04:28.262Z,25.95
2022-08-11T01:05:28.503Z,25.94
2022-08-11T01:06:28.743Z,25.94
2022-08-11T01:08:03.030Z,25.94
2022-08-11T01:08:30.222Z,25.94
2022-08-11T01:09:29.525Z,25.94
2022-08-11T01:10:29.773Z,25.94
2022-08-11T01:11:30.022Z,25.94
2022-08-11T01:12:30.262Z,25.94
2022-08-11T01:13:30.505Z,25.92
2022-08-11T01:14:34.593Z,25.94
2022-08-11T01:15:31.795Z,25.94
2022-08-11T01:16:31.215Z,25.94
2022-08-11T01:17:31.463Z,25.94
2022-08-11T01:18:31.706Z,25.92
2022-08-11T01:19:31.944Z,25.92
2022-08-11T01:20:46.720Z,25.91
2022-08-11T01:21:33.506Z,25.92
2022-08-11T01:22:32.858Z,25.91
2022-08-11T01:23:33.087Z,25.91
2022-08-11T01:24:33.336Z,25.91
2022-08-11T01:25:33.628Z,25.91
2022-08-11T01:26:34.858Z,25.91
2022-08-11T01:27:34.169Z,25.91
2022-08-11T01:28:34.410Z,25.92
2022-08-11T01:29:34.659Z,25.91
2022-08-11T01:30:36.859Z,25.90
2022-08-11T01:31:35.178Z,25.91
2022-08-11T01:32:35.431Z,25.90
2022-08-11T01:33:35.671Z,25.90
2022-08-11T01:34:35.910Z,25.90
2022-08-11T01:35:37.418Z,25.88
2022-08-11T01:36:36.431Z,25.90
2022-08-11T01:37:36.663Z,25.88
2022-08-11T01:38:36.902Z,25.88
2022-08-11T01:39:37.227Z,25.87
2022-08-11T01:40:37.442Z,25.88
2022-08-11T01:41:37.684Z,25.88
2022-08-11T01:42:38.056Z,25.88
2022-08-11T01:43:38.284Z,25.88
2022-08-11T01:44:38.486Z,25.87
2022-08-11T01:45:39.535Z,25.88
2022-08-11T01:46:38.956Z,25.87
2022-08-11T01:47:39.195Z,25.87
2022-08-11T01:48:40.428Z,25.87
2022-08-11T01:50:08.040Z,25.85
2022-08-11T01:50:41.774Z,25.87
2022-08-11T01:51:45.118Z,25.87
2022-08-11T01:52:41.708Z,25.85
2022-08-11T01:53:40.668Z,25.85
2022-08-11T01:54:40.907Z,25.85
2022-08-11T01:55:41.149Z,25.85
2022-08-11T01:56:41.390Z,25.83
2022-08-11T01:57:41.628Z,25.85
2022-08-11T01:58:44.253Z,25.85
2022-08-11T01:59:42.180Z,25.83
2022-08-11T02:00:44.071Z,25.85
2022-08-11T02:01:42.723Z,25.85
2022-08-11T02:02:42.960Z,25.83
2022-08-11T02:03:43.201Z,25.83
2022-08-11T02:04:43.450Z,25.83
2022-08-11T02:05:43.680Z,25.83
2022-08-11T02:06:43.921Z,25.83
2022-08-11T02:07:44.162Z,25.83
2022-08-11T02:08:48.194Z,25.82
2022-08-11T02:09:49.897Z,25.82
2022-08-11T02:10:50.423Z,25.82
2022-08-11T02:11:46.202Z,25.82
2022-08-11T02:12:51.244Z,25.82
2022-08-11T02:13:46.782Z,25.82
2022-08-11T02:15:04.438Z,25.80
2022-08-11T02:15:48.974Z,25.80
2022-08-11T02:16:46.557Z,25.80
2022-08-11T02:17:46.796Z,25.80
2022-08-11T02:18:47.039Z,25.80
2022-08-11T02:19:47.276Z,25.80
2022-08-11T02:20:47.516Z,25.82
2022-08-11T02:21:47.757Z,25.80
2022-08-11T02:22:47.997Z,25.82
2022-08-11T02:24:05.435Z,25.80
2022-08-11T02:24:49.474Z,25.82
2022-08-11T02:25:48.766Z,25.80
2022-08-11T02:26:49.009Z,25.79
2022-08-11T02:27:49.248Z,25.79
2022-08-11T02:28:49.489Z,25.79
2022-08-11T02:29:49.729Z,25.80
2022-08-11T02:30:49.959Z,25.79
2022-08-11T02:32:24.779Z,25.79
2022-08-11T02:32:51.430Z,25.79
2022-08-11T02:33:50.739Z,25.79
2022-08-11T02:34:59.560Z,25.79
2022-08-11T02:35:52.201Z,25.77
2022-08-11T02:36:51.501Z,25.79
2022-08-11T02:37:51.734Z,25.77
2022-08-11T02:38:51.972Z,25.77
2022-08-11T02:39:52.261Z,25.77
2022-08-11T02:40:52.513Z,25.76
2022-08-11T02:41:52.754Z,25.77
2022-08-11T02:42:52.992Z,25.76
2022-08-11T02:43:53.236Z,25.77
2022-08-11T02:44:53.474Z,25.77
2022-08-11T02:45:53.705Z,25.77
2022-08-11T02:46:53.955Z,25.76
2022-08-11T02:47:54.195Z,25.76
2022-08-11T02:48:54.425Z,25.76
2022-08-11T02:50:02.779Z,25.76
2022-08-11T02:50:55.896Z,25.76
2022-08-11T02:51:55.199Z,25.76
2022-08-11T02:52:55.437Z,25.76
2022-08-11T02:53:58.014Z,25.76
2022-08-11T02:54:56.017Z,25.75
2022-08-11T02:55:58.258Z,25.75
2022-08-11T02:56:56.498Z,25.75
2022-08-11T02:57:56.738Z,25.75
2022-08-11T02:58:56.969Z,25.75
2022-08-11T02:59:57.209Z,25.75
2022-08-11T03:00:57.453Z,25.75
2022-08-11T03:02:02.459Z,25.73
2022-08-11T03:02:58.909Z,25.75
2022-08-11T03:03:58.219Z,25.73
2022-08-11T03:04:58.451Z,25.73
2022-08-11T03:05:58.691Z,25.73
2022-08-11T03:06:58.991Z,25.73
2022-08-11T03:07:59.248Z,25.73
2022-08-11T03:08:59.463Z,25.73
2022-08-11T03:09:59.711Z,25.73
2022-08-11T03:10:59.953Z,25.72
2022-08-11T03:12:00.193Z,25.72
2022-08-11T03:13:00.433Z,25.72
2022-08-11T03:14:00.674Z,25.72
2022-08-11T03:15:00.905Z,25.73
2022-08-11T03:16:01.154Z,25.72
2022-08-11T03:17:01.395Z,25.72
2022-08-11T03:18:01.634Z,25.70
2022-08-11T03:19:01.866Z,25.70
2022-08-11T03:20:02.127Z,25.70
2022-08-11T03:21:02.347Z,25.70
2022-08-11T03:22:03.547Z,25.70
2022-08-11T03:23:02.919Z,25.72
2022-08-11T03:24:03.156Z,25.69
2022-08-11T03:25:03.398Z,25.70
2022-08-11T03:26:03.637Z,25.70
2022-08-11T03:27:03.886Z,25.69
2022-08-11T03:28:05.133Z,25.69
2022-08-11T03:29:04.418Z,25.69
2022-08-11T03:30:04.725Z,25.70
2022-08-11T03:31:04.954Z,25.70
2022-08-11T03:32:05.202Z,25.69
2022-08-11T03:33:05.446Z,25.69
2022-08-11T03:34:07.267Z,25.69
2022-08-11T03:35:06.020Z,25.67
2022-08-11T03:36:06.260Z,25.69
2022-08-11T03:37:16.426Z,25.67
2022-08-11T03:38:07.732Z,25.69
2022-08-11T03:39:07.112Z,25.67
2022-08-11T03:40:07.393Z,25.67
2022-08-11T03:41:50.471Z,25.67
2022-08-11T03:42:10.249Z,25.69
2022-08-11T03:43:08.182Z,25.67
2022-08-11T03:44:08.422Z,25.67
2022-08-11T03:45:08.655Z,25.67
2022-08-11T03:46:08.894Z,25.65
2022-08-11T03:47:09.141Z,25.67
2022-08-11T03:48:09.375Z,25.65
2022-08-11T03:49:09.616Z,25.65
2022-08-11T03:50:09.865Z,25.65
2022-08-11T03:51:10.106Z,25.65
2022-08-11T03:52:10.347Z,25.65
2022-08-11T03:53:10.591Z,25.65
2022-08-11T03:54:10.827Z,25.65
2022-08-11T03:55:11.071Z,25.65
2022-08-11T03:56:11.309Z,25.65
2022-08-11T03:57:11.547Z,25.65
2022-08-11T03:58:11.788Z,25.64
2022-08-11T03:59:12.030Z,25.64
2022-08-11T04:00:12.271Z,25.64
2022-08-11T04:01:12.563Z,25.64
2022-08-11T04:02:12.820Z,25.65
2022-08-11T04:03:13.061Z,25.65
2022-08-11T04:04:13.302Z,25.64
2022-08-11T04:05:13.530Z,25.64
2022-08-11T04:06:13.771Z,25.64
2022-08-11T04:07:17.823Z,25.62
2022-08-11T04:08:14.350Z,25.61
2022-08-11T04:09:14.581Z,25.62
2022-08-11T04:10:14.822Z,25.62
2022-08-11T04:11:15.061Z,25.62
2022-08-11T04:12:35.359Z,25.64
2022-08-11T04:13:16.553Z,25.61
2022-08-11T04:14:15.854Z,25.62
2022-08-11T04:15:16.093Z,25.62
2022-08-11T04:16:16.325Z,25.61
2022-08-11T04:17:16.566Z,25.61
2022-08-11T04:18:16.812Z,25.62
2022-08-11T04:19:17.047Z,25.61
2022-08-11T04:20:17.287Z,25.61
2022-08-11T04:21:17.534Z,25.61
2022-08-11T04:22:17.786Z,25.61
2022-08-11T04:24:34.527Z,25.61
2022-08-11T04:24:38.680Z,25.61
2022-08-11T04:25:19.539Z,25.61
2022-08-11T04:26:19.137Z,25.61
2022-08-11T04:27:19.345Z,25.60
2022-08-11T04:28:29.230Z,25.60
2022-08-11T04:29:20.649Z,25.60
2022-08-11T04:30:19.952Z,25.61
2022-08-11T04:31:48.873Z,25.60
2022-08-11T04:32:21.419Z,25.60
2022-08-11T04:33:20.721Z,25.61
2022-08-11T04:34:21.040Z,25.60
2022-08-11T04:35:21.271Z,25.60
2022-08-11T04:36:21.621Z,25.60
2022-08-11T04:37:21.852Z,25.58
2022-08-11T04:38:22.091Z,25.60
2022-08-11T04:39:22.399Z,25.58
2022-08-11T04:40:22.642Z,25.58
2022-08-11T04:41:22.874Z,25.58
2022-08-11T04:42:23.161Z,25.60
2022-08-11T04:43:23.377Z,25.60
2022-08-11T04:44:23.624Z,25.57
2022-08-11T04:45:23.864Z,25.58
2022-08-11T04:46:24.104Z,25.58
2022-08-11T04:47:24.352Z,25.60
2022-08-11T04:48:24.584Z,25.58
2022-08-11T04:49:33.640Z,25.58
2022-08-11T04:50:26.055Z,25.60
2022-08-11T04:51:25.356Z,25.58
2022-08-11T04:52:25.636Z,25.58
2022-08-11T04:53:26.826Z,25.60
2022-08-11T04:54:28.686Z,25.58
2022-08-11T04:55:26.387Z,25.58
2022-08-11T04:56:26.651Z,25.58
2022-08-11T04:57:26.898Z,25.58
2022-08-11T04:58:31.499Z,25.58
2022-08-11T04:59:27.380Z,25.58
2022-08-11T05:00:27.619Z,25.58
2022-08-11T05:01:27.945Z,25.58
2022-08-11T05:02:28.218Z,25.57
2022-08-11T05:03:28.490Z,25.60
2022-08-11T05:04:28.740Z,25.58
2022-08-11T05:05:28.998Z,25.58
2022-08-11T05:06:29.261Z,25.58
2022-08-11T05:07:29.522Z,25.58
2022-08-11T05:08:29.779Z,25.60
2022-08-11T05:09:30.033Z,25.58
2022-08-11T05:10:30.292Z,25.58
2022-08-11T05:11:30.542Z,25.60
2022-08-11T05:12:30.793Z,25.58
2022-08-11T05:13:31.045Z,25.58
2022-08-11T05:14:31.306Z,25.58
2022-08-11T05:15:31.554Z,25.58
2022-08-11T05:16:32.792Z,25.60
2022-08-11T05:17:32.107Z,25.58
2022-08-11T05:18:32.357Z,25.58
2022-08-11T05:19:32.605Z,25.58
2022-08-11T05:20:32.865Z,25.58
2022-08-11T05:21:44.846Z,25.58
2022-08-11T05:22:34.357Z,25.57
2022-08-11T05:23:33.688Z,25.55
2022-08-11T05:24:33.955Z,25.55
2022-08-11T05:26:45.329Z,25.57
2022-08-11T05:26:46.421Z,25.55
2022-08-11T05:27:35.796Z,25.55
2022-08-11T05:28:35.109Z,25.54
2022-08-11T05:29:35.359Z,25.55
2022-08-11T05:30:35.628Z,25.54
2022-08-11T05:31:35.881Z,25.52
2022-08-11T05:32:36.292Z,25.54
2022-08-11T05:33:36.430Z,25.54
2022-08-11T05:34:36.699Z,25.55
2022-08-11T05:36:01.877Z,25.54
2022-08-11T05:36:38.181Z,25.54
2022-08-11T05:37:37.496Z,25.54
2022-08-11T05:38:37.748Z,25.54
2022-08-11T05:39:38.041Z,25.54
2022-08-11T05:40:38.303Z,25.54
2022-08-11T05:41:38.565Z,25.52
2022-08-11T05:42:38.824Z,25.54
2022-08-11T05:43:39.093Z,25.54
2022-08-11T05:44:40.335Z,25.54
2022-08-11T05:46:03.552Z,25.55
2022-08-11T05:46:40.925Z,25.55
2022-08-11T05:47:40.125Z,25.54
2022-08-11T05:48:40.395Z,25.55
2022-08-11T05:49:40.666Z,25.55
2022-08-11T05:50:40.936Z,25.57
2022-08-11T05:51:51.908Z,25.55
2022-08-11T05:52:42.528Z,25.57
2022-08-11T05:53:46.259Z,25.57
2022-08-11T05:54:42.048Z,25.60
2022-08-11T05:55:53.946Z,25.58
2022-08-11T05:56:43.557Z,25.61
2022-08-11T05:57:50.849Z,25.61
2022-08-11T05:58:44.139Z,25.60
2022-08-11T05:59:43.469Z,25.62
2022-08-11T06:00:43.742Z,25.64
2022-08-11T06:01:44.072Z,25.64
2022-08-11T06:02:44.370Z,25.62
2022-08-11T06:03:57.573Z,25.61
2022-08-11T06:04:45.914Z,25.58
2022-08-11T06:05:45.120Z,25.57
2022-08-11T06:06:47.025Z,25.52
2022-08-11T06:07:48.654Z,25.51
2022-08-11T06:08:45.992Z,25.47
2022-08-11T06:09:46.252Z,25.45
2022-08-11T06:10:46.532Z,25.43
2022-08-11T06:11:46.793Z,25.40
2022-08-11T06:12:47.063Z,25.38
2022-08-11T06:13:47.334Z,25.35
2022-08-11T06:14:47.613Z,25.35
2022-08-11T06:15:47.874Z,25.33
2022-08-11T06:16:48.145Z,25.32
2022-08-11T06:17:48.415Z,25.33
2022-08-11T06:18:48.695Z,25.32
2022-08-11T06:19:48.965Z,25.33
2022-08-11T06:20:49.252Z,25.33
2022-08-11T06:21:49.519Z,25.33
2022-08-11T06:22:53.046Z,25.33
2022-08-11T06:23:50.068Z,25.35
2022-08-11T06:24:50.343Z,25.35
2022-08-11T06:25:50.608Z,25.35
2022-08-11T06:27:11.249Z,25.36
2022-08-11T06:27:52.145Z,25.36
2022-08-11T06:28:51.468Z,25.36
2022-08-11T06:29:54.970Z,25.36
2022-08-11T06:30:51.999Z,25.36
2022-08-11T06:31:52.270Z,25.36
2022-08-11T06:32:52.551Z,25.38
2022-08-11T06:33:52.809Z,25.38
2022-08-11T06:34:53.080Z,25.38
2022-08-11T06:35:53.358Z,25.38
2022-08-11T06:36:53.629Z,25.40
2022-08-11T06:37:58.716Z,25.40
2022-08-11T06:38:55.154Z,25.40
2022-08-11T06:39:54.518Z,25.40
2022-08-11T06:40:54.813Z,25.42
2022-08-11T06:41:55.064Z,25.42
2022-08-11T06:42:55.342Z,25.42
2022-08-11T06:43:56.392Z,25.42
2022-08-11T06:44:55.874Z,25.42
2022-08-11T06:45:56.134Z,25.42
2022-08-11T06:46:56.405Z,25.43
2022-08-11T06:47:56.685Z,25.43
2022-08-11T06:48:57.895Z,25.45
2022-08-11T06:49:57.224Z,25.45
2022-08-11T06:50:57.487Z,25.43
2022-08-11T06:52:00.716Z,25.43
2022-08-11T06:52:58.057Z,25.42
2022-08-11T06:54:04.129Z,25.40
2022-08-11T06:54:59.578Z,25.40
2022-08-11T06:55:59.129Z,25.39
2022-08-11T06:57:28.234Z,25.38
2022-08-11T06:58:06.457Z,25.38
2022-08-11T06:58:59.696Z,25.39
2022-08-11T07:00:00.046Z,25.39
2022-08-11T07:01:00.299Z,25.40
2022-08-11T07:02:00.642Z,25.39
2022-08-11T07:03:00.910Z,25.40
2022-08-11T07:04:01.178Z,25.43
2022-08-11T07:05:01.447Z,25.43
2022-08-11T07:06:01.716Z,25.45
2022-08-11T07:07:01.979Z,25.46
2022-08-11T07:08:33.153Z,25.46
2022-08-11T07:09:03.502Z,25.47
2022-08-11T07:10:02.857Z,25.50
2022-08-11T07:11:03.110Z,25.51
2022-08-11T07:12:03.383Z,25.52
2022-08-11T07:13:03.654Z,25.52
2022-08-11T07:14:03.989Z,25.55
2022-08-11T07:15:04.262Z,25.57
2022-08-11T07:16:10.892Z,25.58
2022-08-11T07:17:05.781Z,25.60
2022-08-11T07:18:05.113Z,25.60
2022-08-11T07:19:05.382Z,25.62
2022-08-11T07:20:05.654Z,25.64
2022-08-11T07:21:05.923Z,25.67
2022-08-11T07:22:07.165Z,25.70
2022-08-11T07:23:06.494Z,25.72
2022-08-11T07:24:06.764Z,25.75
2022-08-11T07:25:07.042Z,25.75
2022-08-11T07:26:07.355Z,25.79
2022-08-11T07:27:07.635Z,25.80
2022-08-11T07:28:07.915Z,25.82
2022-08-11T07:29:08.192Z,25.87
2022-08-11T07:30:08.476Z,25.87
2022-08-11T07:31:08.768Z,25.88
2022-08-11T07:32:09.038Z,25.90
2022-08-11T07:33:09.417Z,25.90
2022-08-11T07:34:13.263Z,25.92
2022-08-11T07:35:10.889Z,25.91
2022-08-11T07:36:10.129Z,25.92
2022-08-11T07:37:10.399Z,25.92
2022-08-11T07:38:10.679Z,25.94
2022-08-11T07:39:11.012Z,25.95
2022-08-11T07:40:11.189Z,25.97
2022-08-11T07:41:11.458Z,25.97
2022-08-11T07:42:11.742Z,25.98
2022-08-11T07:43:12.013Z,25.98
2022-08-11T07:44:12.280Z,25.97
2022-08-11T07:45:12.551Z,25.99
2022-08-11T07:46:12.828Z,25.99
2022-08-11T07:47:13.101Z,25.99
2022-08-11T07:48:13.381Z,26.01
2022-08-11T07:49:13.650Z,26.05
2022-08-11T07:50:13.924Z,26.06
2022-08-11T07:51:14.201Z,26.07
2022-08-11T07:52:14.479Z,26.09
2022-08-11T07:53:14.744Z,26.12
2022-08-11T07:54:17.137Z,26.12
2022-08-11T07:55:15.316Z,26.13
2022-08-11T07:56:15.583Z,26.15
2022-08-11T07:57:31.093Z,26.17
2022-08-11T07:58:19.923Z,26.17
2022-08-11T07:59:16.323Z,26.20
2022-08-11T08:00:16.566Z,26.18
2022-08-11T08:01:21.839Z,26.20
2022-08-11T08:02:18.201Z,26.21
2022-08-11T08:03:17.427Z,26.21
2022-08-11T08:04:17.706Z,26.23
2022-08-11T08:05:17.977Z,26.26
2022-08-11T08:06:35.825Z,26.25
2022-08-11T08:07:19.488Z,26.28
2022-08-11T08:08:18.826Z,26.29
2022-08-11T08:09:19.088Z,26.30
2022-08-11T08:10:19.359Z,26.30
2022-08-11T08:11:23.982Z,26.33
2022-08-11T08:12:20.889Z,26.33
2022-08-11T08:13:20.220Z,26.37
2022-08-11T08:14:20.499Z,26.39
2022-08-11T08:15:20.761Z,26.43
2022-08-11T08:16:21.032Z,26.45
2022-08-11T08:17:21.299Z,26.48
2022-08-11T08:18:26.458Z,26.50
2022-08-11T08:19:22.811Z,26.51
2022-08-11T08:20:22.184Z,26.54
2022-08-11T08:21:22.466Z,26.57
2022-08-11T08:22:38.433Z,26.60
2022-08-11T08:23:24.003Z,26.60
2022-08-11T08:24:23.343Z,26.63
2022-08-11T08:25:23.614Z,26.65
2022-08-11T08:26:23.924Z,26.67
2022-08-11T08:27:24.214Z,26.70
2022-08-11T08:28:26.865Z,26.73
2022-08-11T08:29:24.713Z,26.75
2022-08-11T08:30:24.987Z,26.77
2022-08-11T08:31:25.255Z,26.81
2022-08-11T08:32:25.525Z,26.82
2022-08-11T08:33:25.836Z,26.85
2022-08-11T08:34:26.106Z,26.85
2022-08-11T08:35:29.421Z,26.89
2022-08-11T08:36:27.677Z,26.92
2022-08-11T08:37:46.834Z,26.91
2022-08-11T08:38:28.278Z,26.94
2022-08-11T08:39:27.503Z,26.94
2022-08-11T08:40:27.806Z,26.97
2022-08-11T08:41:28.078Z,27.00
2022-08-11T08:42:28.427Z,27.02
2022-08-11T08:43:28.700Z,27.02
2022-08-11T08:44:38.973Z,27.03
2022-08-11T08:45:30.217Z,27.06
2022-08-11T08:46:29.549Z,27.06
2022-08-11T08:47:42.712Z,27.07
2022-08-11T08:48:31.070Z,27.09
2022-08-11T08:49:30.401Z,27.09
2022-08-11T08:50:30.683Z,27.12
2022-08-11T08:51:57.862Z,27.12
2022-08-11T08:52:35.899Z,27.14
2022-08-11T08:53:32.444Z,27.17
2022-08-11T08:54:31.652Z,27.19
2022-08-11T08:55:31.923Z,27.21
2022-08-11T08:56:32.201Z,27.21
2022-08-11T08:57:32.485Z,27.21
2022-08-11T08:58:33.791Z,27.22
2022-08-11T08:59:48.856Z,27.24
2022-08-11T09:00:34.225Z,27.24
2022-08-11T09:01:33.636Z,27.27
2022-08-11T09:02:35.111Z,27.27
2022-08-11T09:04:03.009Z,27.28
2022-08-11T09:04:35.446Z,27.29
2022-08-11T09:05:34.787Z,27.29
2022-08-11T09:06:35.057Z,27.32
2022-08-11T09:07:38.476Z,27.34
2022-08-11T09:08:35.607Z,27.32
2022-08-11T09:09:35.867Z,27.36
2022-08-11T09:10:36.147Z,27.36
2022-08-11T09:11:36.408Z,27.39
2022-08-11T09:12:38.780Z,27.37
2022-08-11T09:13:37.022Z,27.36
2022-08-11T09:14:37.300Z,27.36
2022-08-11T09:15:37.573Z,27.36
2022-08-11T09:16:37.840Z,27.36
2022-08-11T09:17:38.230Z,27.32
2022-08-11T09:18:38.439Z,27.31
2022-08-11T09:19:38.701Z,27.27
2022-08-11T09:20:38.973Z,27.24
2022-08-11T09:21:49.579Z,27.24
2022-08-11T09:22:40.583Z,27.19
2022-08-11T09:24:08.335Z,27.18
2022-08-11T09:24:41.063Z,27.13
2022-08-11T09:25:40.395Z,27.12
2022-08-11T09:26:40.673Z,27.09
2022-08-11T09:27:40.943Z,27.10
2022-08-11T09:28:42.194Z,27.10
2022-08-11T09:29:41.514Z,27.09
2022-08-11T09:30:41.784Z,27.09
2022-08-11T09:31:42.135Z,27.04
2022-08-11T09:32:42.365Z,27.09
2022-08-11T09:33:42.994Z,27.07
2022-08-11T09:34:42.906Z,27.09
2022-08-11T09:35:43.178Z,27.09
2022-08-11T09:36:43.467Z,27.10
2022-08-11T09:37:54.082Z,27.10
2022-08-11T09:38:49.313Z,27.10
2022-08-11T09:39:44.323Z,27.12
2022-08-11T09:40:44.628Z,27.13
2022-08-11T09:42:00.565Z,27.14
2022-08-11T09:42:46.138Z,27.17
2022-08-11T09:43:45.359Z,27.18
2022-08-11T09:44:45.670Z,27.19
2022-08-11T09:45:45.941Z,27.19
2022-08-11T09:46:46.220Z,27.22
2022-08-11T09:47:46.480Z,27.25
2022-08-11T09:48:46.760Z,27.28
2022-08-11T09:49:47.021Z,27.29
2022-08-11T09:50:47.317Z,27.32
2022-08-11T09:52:04.994Z,27.37
2022-08-11T09:53:16.851Z,27.40
2022-08-11T09:54:03.782Z,27.43
2022-08-11T09:54:49.435Z,27.46
2022-08-11T09:55:48.733Z,27.47
2022-08-11T09:56:49.003Z,27.51
2022-08-11T09:57:49.273Z,27.55
2022-08-11T09:58:49.562Z,27.57
2022-08-11T09:59:49.834Z,27.59
2022-08-11T10:00:50.134Z,27.62
2022-08-11T10:01:50.417Z,27.65
2022-08-11T10:02:50.760Z,27.65
2022-08-11T10:03:51.027Z,27.66
2022-08-11T10:04:51.296Z,27.69
2022-08-11T10:05:51.570Z,27.69
2022-08-11T10:06:54.126Z,27.70
2022-08-11T10:07:52.137Z,27.72
2022-08-11T10:08:52.407Z,27.72
2022-08-11T10:09:52.687Z,27.75
2022-08-11T10:10:52.957Z,27.75
2022-08-11T10:11:57.725Z,27.75
2022-08-11T10:12:54.469Z,27.74
2022-08-11T10:14:30.909Z,27.74
2022-08-11T10:14:55.050Z,27.72
2022-08-11T10:16:03.616Z,27.74
2022-08-11T10:16:55.629Z,27.70
2022-08-11T10:17:54.971Z,27.69
2022-08-11T10:18:55.244Z,27.70
2022-08-11T10:20:04.459Z,27.72
2022-08-11T10:20:56.762Z,27.74
2022-08-11T10:21:56.121Z,27.72
2022-08-11T10:22:56.392Z,27.72
2022-08-11T10:24:01.325Z,27.72
2022-08-11T10:24:57.912Z,27.74
2022-08-11T10:25:57.242Z,27.74
2022-08-11T10:26:57.512Z,27.72
2022-08-11T11:44:09.139Z,27.67
2022-08-11T11:45:09.429Z,27.67
2022-08-11T11:46:10.766Z,27.69
2022-08-11T11:47:09.966Z,27.67
2022-08-11T11:48:10.211Z,27.67
2022-08-11T11:49:17.233Z,27.66
2022-08-11T11:50:11.700Z,27.67
2022-08-11T11:51:11.021Z,27.67
2022-08-11T11:52:11.271Z,27.66
2022-08-11T11:53:11.535Z,27.67
2022-08-11T11:54:11.771Z,27.66
2022-08-11T11:55:12.125Z,27.66
2022-08-11T11:56:12.364Z,27.66
2022-08-11T11:57:12.612Z,27.65
2022-08-11T11:58:17.903Z,27.66
2022-08-11T11:59:14.646Z,27.66
2022-08-11T12:00:13.383Z,27.65
2022-08-11T12:01:13.644Z,27.65
2022-08-11T12:02:13.895Z,27.65
2022-08-11T12:03:14.224Z,27.63
2022-08-11T12:04:14.898Z,27.65
2022-08-11T12:05:14.795Z,27.65
2022-08-11T12:06:15.060Z,27.65
2022-08-11T12:07:15.307Z,27.65
2022-08-11T12:08:15.578Z,27.65
2022-08-11T12:09:15.836Z,27.65
2022-08-11T12:10:16.088Z,27.62
2022-08-11T12:11:16.344Z,27.63
2022-08-11T12:12:16.588Z,27.65
2022-08-11T12:13:16.848Z,27.65
2022-08-11T12:14:17.119Z,27.63
2022-08-11T12:15:17.379Z,27.63
2022-08-11T12:16:33.759Z,27.63
2022-08-11T12:17:18.867Z,27.62
2022-08-11T12:18:18.181Z,27.62
2022-08-11T12:19:18.441Z,27.62
2022-08-11T12:20:31.562Z,27.62
2022-08-11T12:21:19.950Z,27.60
2022-08-11T12:22:19.261Z,27.62
2022-08-11T12:23:19.568Z,27.60
2022-08-11T12:24:19.821Z,27.62
2022-08-11T12:25:20.082Z,27.62
2022-08-11T12:26:27.730Z,27.60
2022-08-11T12:27:25.141Z,27.60
2022-08-11T12:28:20.852Z,27.59
2022-08-11T12:29:21.103Z,27.59
2022-08-11T12:30:21.353Z,27.59
2022-08-11T12:31:21.613Z,27.59
2022-08-11T12:32:21.854Z,27.59
2022-08-11T12:33:24.085Z,27.60
2022-08-11T12:34:22.433Z,27.59
2022-08-11T12:35:22.687Z,27.59
2022-08-11T12:36:22.936Z,27.59
2022-08-11T12:37:23.197Z,27.59
2022-08-11T12:38:29.759Z,27.57
2022-08-11T12:40:16.434Z,27.57
2022-08-11T12:40:42.160Z,27.57
2022-08-11T12:41:25.281Z,27.57
2022-08-11T12:42:24.558Z,27.57
2022-08-11T12:43:38.872Z,27.55
2022-08-11T12:44:26.098Z,27.57
2022-08-11T12:45:25.409Z,27.55
2022-08-11T12:46:25.657Z,27.57
2022-08-11T12:47:25.911Z,27.55
2022-08-11T12:48:58.518Z,27.55
2022-08-11T12:49:27.401Z,27.55
2022-08-11T12:50:26.711Z,27.54
2022-08-11T12:51:26.961Z,27.54
2022-08-11T12:52:27.261Z,27.54
2022-08-11T12:53:27.512Z,27.54
2022-08-11T12:54:27.772Z,27.54
2022-08-11T12:55:28.024Z,27.54
2022-08-11T12:56:28.282Z,27.54
2022-08-11T12:57:32.138Z,27.54
2022-08-11T12:58:29.807Z,27.54
2022-08-11T12:59:29.134Z,27.54
2022-08-11T13:00:29.412Z,27.51
2022-08-11T13:01:29.736Z,27.51
2022-08-11T13:02:29.965Z,27.51
2022-08-11T13:03:31.205Z,27.54
2022-08-11T13:04:30.525Z,27.51
2022-08-11T13:05:30.785Z,27.51
2022-08-11T13:06:31.026Z,27.51
2022-08-11T13:07:50.515Z,27.51
2022-08-11T13:08:32.507Z,27.55
2022-08-11T13:09:31.837Z,27.54
2022-08-11T13:10:32.088Z,27.54
2022-08-11T13:11:56.248Z,27.54
2022-08-11T13:12:33.613Z,27.51
2022-08-11T13:13:52.524Z,27.51
2022-08-11T13:14:34.040Z,27.54
2022-08-11T13:15:33.349Z,27.54
2022-08-11T13:16:33.600Z,27.54
2022-08-11T13:17:43.743Z,27.54
2022-08-11T13:18:35.090Z,27.51
2022-08-11T13:19:34.409Z,27.54
2022-08-11T13:20:34.661Z,27.51
2022-08-11T13:21:34.911Z,27.54
2022-08-11T13:22:35.167Z,27.54
2022-08-11T13:23:35.422Z,27.55
2022-08-11T13:24:35.672Z,27.51
2022-08-11T13:25:35.973Z,27.54
2022-08-11T13:26:43.329Z,27.54
2022-08-11T13:27:37.460Z,27.54
2022-08-11T13:28:36.763Z,27.54
2022-08-11T13:29:37.023Z,27.54
2022-08-11T13:30:41.171Z,27.51
2022-08-11T13:31:38.543Z,27.51
2022-08-11T13:32:37.955Z,27.54
2022-08-11T13:33:38.097Z,27.54
2022-08-11T13:34:38.438Z,27.54
2022-08-11T13:35:38.695Z,27.55
2022-08-11T13:36:38.948Z,27.54
2022-08-11T13:38:19.007Z,27.55
2022-08-11T13:38:40.446Z,27.55
2022-08-11T13:39:39.821Z,27.54
2022-08-11T13:40:55.051Z,27.54
2022-08-11T13:41:41.286Z,27.51
2022-08-11T13:42:40.588Z,27.54
2022-08-11T13:43:40.859Z,27.54
2022-08-11T13:44:41.119Z,27.54
2022-08-11T13:45:41.380Z,27.55
2022-08-11T13:46:41.630Z,27.54
2022-08-11T13:47:41.940Z,27.54
2022-08-11T13:48:42.120Z,27.54
2022-08-11T13:49:42.380Z,27.54
2022-08-11T13:50:42.632Z,27.51
2022-08-11T13:51:42.881Z,27.51
2022-08-11T13:52:43.132Z,27.54
2022-08-11T13:53:43.372Z,27.51
2022-08-11T13:54:43.623Z,27.51
2022-08-11T13:55:51.454Z,27.51
2022-08-11T13:56:45.114Z,27.54
2022-08-11T13:58:08.353Z,27.51
2022-08-11T13:58:46.018Z,27.54
2022-08-11T13:59:52.290Z,27.51
2022-08-11T14:00:52.649Z,27.51
2022-08-11T14:02:03.855Z,27.51
2022-08-11T14:02:46.794Z,27.51
2022-08-11T14:04:28.712Z,27.50
2022-08-11T14:04:47.250Z,27.51
2022-08-11T14:05:47.680Z,27.51
2022-08-11T14:06:46.777Z,27.51
2022-08-11T14:07:47.046Z,27.50
2022-08-11T14:08:47.468Z,27.50
2022-08-11T14:09:47.548Z,27.50
2022-08-11T14:10:48.788Z,27.50
2022-08-11T14:12:21.364Z,27.51